Time;durP1;ratioP1;P1;durP2;ratioP2;P2;SDS_P1;SDS_P2;PMS_P1;PMS_P2;Temp;Humidity;BMP_temperature;BMP_pressure;BME280_temperature;BME280_humidity;BME280_pressure;Samples;Min_cycle;Max_cycle;Signal;HPM_P1;HPM_P2
2023/09/17 00:01:29;;;;;;;;;;;;;;;;;;5073272;28;19924;-70
2023/09/17 00:03:56;;;;;;;;;;;;;;;;;;5087396;28;20444;-70
2023/09/17 00:06:23;;;;;;;;;;;;;;;;;;5093723;28;19924;-71
2023/09/17 00:08:50;;;;;;;;;;;;;;;;;;5094567;28;20375;-71
2023/09/17 00:11:17;;;;;;;;;;;;;;;;;;5095070;28;19951;-71
2023/09/17 00:13:44;;;;;;;;;;;;;;;;;;5094211;28;19960;-71
2023/09/17 00:16:11;;;;;;;;;;;;;;;;;;5092416;28;20321;-71
2023/09/17 00:18:38;;;;;;;;;;;;;;;;;;5094711;28;19977;-70
2023/09/17 00:21:06;;;;;;;;;;;;;;;;;;5092488;28;19930;-71
2023/09/17 00:23:33;;;;;;;;;;;;;;;;;;5092856;28;19953;-70
2023/09/17 00:26:00;;;;;;;;;;;;;;;;;;5092831;28;19924;-71
2023/09/17 00:28:27;;;;;;;;;;;;;;;;;;5084874;28;19985;-70
2023/09/17 00:30:55;;;;;;;;;;;;;;;;;;5090440;28;19924;-70
2023/09/17 00:33:22;;;;;;;;;;;;;;;;;;5092828;28;20402;-70
2023/09/17 00:35:49;;;;;;;;;;;;;;;;;;5092440;28;19924;-70
2023/09/17 00:38:16;;;;;;;;;;;;;;;;;;5092727;28;19975;-70
2023/09/17 00:40:43;;;;;;;;;;;;;;;;;;5093029;28;20020;-70
2023/09/17 00:43:11;;;;;;;;;;;;;;;;;;5092435;28;19976;-70
2023/09/17 00:45:38;;;;;;;;;;;;;;;;;;5092604;28;19947;-70
2023/09/17 00:48:05;;;;;;;;;;;;;;;;;;5091903;28;19924;-70
2023/09/17 00:50:32;;;;;;;;;;;;;;;;;;5092049;28;19928;-70
2023/09/17 00:52:59;;;;;;;;;;;;;;;;;;5091245;28;20367;-70
2023/09/17 00:55:28;;;;;;;;;;;;;;;;;;5087315;28;20015;-70
2023/09/17 00:57:55;;;;;;;;;;;;;;;;;;5092390;28;19934;-71
2023/09/17 01:00:22;;;;;;;;;;;;;;;;;;5092790;28;19924;-71
2023/09/17 01:02:49;;;;;;;;;;;;;;;;;;5092046;28;19924;-70
2023/09/17 01:05:16;;;;;;;;;;;;;;;;;;5091922;28;20430;-70
2023/09/17 01:07:43;;;;;;;;;;;;;;;;;;5092094;28;19977;-71
2023/09/17 01:10:10;;;;;;;;;;;;;;;;;;5092055;28;19924;-70
2023/09/17 01:12:38;;;;;;;;;;;;;;;;;;5092740;28;19924;-71
2023/09/17 01:15:05;;;;;;;;;;;;;;;;;;5092070;28;19924;-70
2023/09/17 01:17:32;;;;;;;;;;;;;;;;;;5092272;28;19978;-70
2023/09/17 01:19:59;;;;;;;;;;;;;;;;;;5092189;28;19930;-70
2023/09/17 01:22:28;;;;;;;;;;;;;;;;;;5091922;28;19924;-71
2023/09/17 01:24:55;;;;;;;;;;;;;;;;;;5091804;28;19928;-70
2023/09/17 01:27:22;;;;;;;;;;;;;;;;;;5092055;28;19924;-70
2023/09/17 01:29:49;;;;;;;;;;;;;;;;;;5095413;28;19977;-70
2023/09/17 01:32:17;;;;;;;;;;;;;;;;;;5095994;28;19928;-70
2023/09/17 01:34:44;;;;;;;;;;;;;;;;;;5096477;28;19924;-70
2023/09/17 01:37:11;;;;;;;;;;;;;;;;;;5095628;28;19924;-70
2023/09/17 01:39:39;;;;;;;;;;;;;;;;;;5095589;28;19924;-70
2023/09/17 01:42:06;;;;;;;;;;;;;;;;;;5096041;28;19924;-70
2023/09/17 01:44:33;;;;;;;;;;;;;;;;;;5095313;28;19947;-70
2023/09/17 01:47:03;;;;;;;;;;;;;;;;;;5096171;28;19924;-70
2023/09/17 01:49:31;;;;;;;;;;;;;;;;;;5093907;28;19931;-70
2023/09/17 01:51:58;;;;;;;;;;;;;;;;;;5095225;28;19928;-70
2023/09/17 01:54:25;;;;;;;;;;;;;;;;;;5095987;28;19924;-70
2023/09/17 01:56:52;;;;;;;;;;;;;;;;;;5096018;28;19977;-70
2023/09/17 01:59:19;;;;;;;;;;;;;;;;;;5095770;28;20016;-70
2023/09/17 02:01:46;;;;;;;;;;;;;;;;;;5093772;28;19924;-70
2023/09/17 02:04:13;;;;;;;;;;;;;;;;;;5095531;28;19928;-70
2023/09/17 02:06:40;;;;;;;;;;;;;;;;;;5093679;28;19928;-70
2023/09/17 02:09:08;;;;;;;;;;;;;;;;;;5095672;28;19979;-70
2023/09/17 02:11:35;;;;;;;;;;;;;;;;;;5093897;28;19972;-70
2023/09/17 02:14:02;;;;;;;;;;;;;;;;;;5094630;28;20393;-70
2023/09/17 02:16:31;;;;;;;;;;;;;;;;;;5095051;28;20306;-70
2023/09/17 02:18:58;;;;;;;;;;;;;;;;;;5094629;28;19932;-70
2023/09/17 02:21:26;;;;;;;;;;;;;;;;;;5103277;28;20392;-70
2023/09/17 02:23:54;;;;;;;;;;;;;;;;;;5115587;28;19931;-70
2023/09/17 02:26:22;;;;;;;;;;;;;;;;;;5097487;28;19924;-70
2023/09/17 02:28:49;;;;;;;;;;;;;;;;;;5094926;28;20010;-70
2023/09/17 02:31:16;;;;;;;;;;;;;;;;;;5095528;28;19979;-72
2023/09/17 02:33:43;;;;;;;;;;;;;;;;;;5095093;28;19985;-70
2023/09/17 02:36:11;;;;;;;;;;;;;;;;;;5098385;28;19977;-70
2023/09/17 02:38:38;;;;;;;;;;;;;;;;;;5115021;28;20010;-70
2023/09/17 02:41:05;;;;;;;;;;;;;;;;;;5114262;28;20428;-70
2023/09/17 02:43:33;;;;;;;;;;;;;;;;;;5115732;28;19924;-70
2023/09/17 02:46:00;;;;;;;;;;;;;;;;;;5096876;28;19924;-70
2023/09/17 02:48:27;;;;;;;;;;;;;;;;;;5094455;28;19932;-70
2023/09/17 02:50:55;;;;;;;;;;;;;;;;;;5094286;28;19967;-70
2023/09/17 02:53:22;;;;;;;;;;;;;;;;;;5094313;28;19924;-70
2023/09/17 02:55:49;;;;;;;;;;;;;;;;;;5094451;28;19925;-70
2023/09/17 02:58:16;;;;;;;;;;;;;;;;;;5094915;28;20354;-70
2023/09/17 03:00:44;;;;;;;;;;;;;;;;;;5094542;28;19969;-70
2023/09/17 03:03:11;;;;;;;;;;;;;;;;;;5097808;28;20391;-70
2023/09/17 03:05:38;;;;;;;;;;;;;;;;;;5113839;28;19924;-70
2023/09/17 03:08:08;;;;;;;;;;;;;;;;;;5114747;28;19923;-70
2023/09/17 03:10:41;;;;;;;;;;;;;;;;;;5100144;28;19993;-70
2023/09/17 03:13:08;;;;;;;;;;;;;;;;;;5094577;28;20010;-70
2023/09/17 03:15:35;;;;;;;;;;;;;;;;;;5099951;28;19973;-68
2023/09/17 03:18:03;;;;;;;;;;;;;;;;;;5114698;28;19985;-69
2023/09/17 03:20:33;;;;;;;;;;;;;;;;;;5114429;28;19923;-68
2023/09/17 03:23:02;;;;;;;;;;;;;;;;;;5114533;28;19930;-68
2023/09/17 03:25:29;;;;;;;;;;;;;;;;;;5098669;28;19979;-68
2023/09/17 03:27:56;;;;;;;;;;;;;;;;;;5093342;28;19946;-69
2023/09/17 03:30:24;;;;;;;;;;;;;;;;;;5094322;28;19928;-70
2023/09/17 03:32:52;;;;;;;;;;;;;;;;;;5093950;28;20280;-70
2023/09/17 03:35:18;;;;;;;;;;;;;;;;;;5093856;28;20007;-71
2023/09/17 03:37:46;;;;;;;;;;;;;;;;;;5093520;28;19977;-71
2023/09/17 03:40:14;;;;;;;;;;;;;;;;;;5091684;28;19985;-69
2023/09/17 03:42:41;;;;;;;;;;;;;;;;;;5093650;28;19938;-69
2023/09/17 03:45:10;;;;;;;;;;;;;;;;;;5091816;28;19935;-70
2023/09/17 03:47:37;;;;;;;;;;;;;;;;;;5086750;28;19927;-70
2023/09/17 03:50:08;;;;;;;;;;;;;;;;;;5094626;28;19946;-74
2023/09/17 03:52:35;;;;;;;;;;;;;;;;;;5096331;28;20331;-71
2023/09/17 03:55:05;;;;;;;;;;;;;;;;;;5095256;28;19928;-71
2023/09/17 03:57:32;;;;;;;;;;;;;;;;;;5081356;28;19928;-70
2023/09/17 03:59:59;;;;;;;;;;;;;;;;;;5089924;28;20287;-70
2023/09/17 04:02:26;;;;;;;;;;;;;;;;;;5093518;28;19924;-71
2023/09/17 04:04:53;;;;;;;;;;;;;;;;;;5093178;28;19986;-70
2023/09/17 04:07:20;;;;;;;;;;;;;;;;;;5088585;28;19985;-71
2023/09/17 04:09:48;;;;;;;;;;;;;;;;;;5093498;28;20378;-71
2023/09/17 04:12:15;;;;;;;;;;;;;;;;;;5093223;28;20453;-70
2023/09/17 04:14:42;;;;;;;;;;;;;;;;;;5092389;28;20383;-70
2023/09/17 04:17:09;;;;;;;;;;;;;;;;;;5092600;28;19924;-70
2023/09/17 04:19:36;;;;;;;;;;;;;;;;;;5092938;28;19970;-70
2023/09/17 04:22:03;;;;;;;;;;;;;;;;;;5093099;28;20444;-70
2023/09/17 04:24:31;;;;;;;;;;;;;;;;;;5091236;28;20457;-70
2023/09/17 04:26:58;;;;;;;;;;;;;;;;;;5087898;28;19942;-70
2023/09/17 04:29:25;;;;;;;;;;;;;;;;;;5092718;28;19977;-70
2023/09/17 04:31:52;;;;;;;;;;;;;;;;;;5092574;28;19924;-70
2023/09/17 04:34:20;;;;;;;;;;;;;;;;;;5090741;28;20299;-70
2023/09/17 04:36:47;;;;;;;;;;;;;;;;;;5092959;28;19978;-70
2023/09/17 04:39:14;;;;;;;;;;;;;;;;;;5092757;28;19948;-70
2023/09/17 04:41:41;;;;;;;;;;;;;;;;;;5093175;28;19924;-70
2023/09/17 04:44:10;;;;;;;;;;;;;;;;;;5092806;28;19924;-70
2023/09/17 04:46:37;;;;;;;;;;;;;;;;;;5076658;28;19924;-70
2023/09/17 04:49:04;;;;;;;;;;;;;;;;;;5071968;28;19925;-70
2023/09/17 04:51:31;;;;;;;;;;;;;;;;;;5076201;28;20410;-70
2023/09/17 04:53:58;;;;;;;;;;;;;;;;;;5092435;28;19977;-70
2023/09/17 04:56:25;;;;;;;;;;;;;;;;;;5092818;28;19977;-70
2023/09/17 04:58:52;;;;;;;;;;;;;;;;;;5092538;28;19925;-70
2023/09/17 05:01:19;;;;;;;;;;;;;;;;;;5092288;28;20002;-70
2023/09/17 05:03:47;;;;;;;;;;;;;;;;;;5094313;28;20004;-70
2023/09/17 05:06:14;;;;;;;;;;;;;;;;;;5092843;28;19924;-70
2023/09/17 05:08:41;;;;;;;;;;;;;;;;;;5082477;28;19924;-70
2023/09/17 05:11:08;;;;;;;;;;;;;;;;;;5096594;28;19947;-70
2023/09/17 05:13:34;;;;;;;;;;;;;;;;;;5096358;28;19924;-70
2023/09/17 05:16:02;;;;;;;;;;;;;;;;;;5095760;28;19978;-70
2023/09/17 05:18:29;;;;;;;;;;;;;;;;;;5096225;28;20370;-70
2023/09/17 05:20:56;;;;;;;;;;;;;;;;;;5095626;28;19938;-70
2023/09/17 05:23:23;;;;;;;;;;;;;;;;;;5096244;28;20028;-70
2023/09/17 05:25:50;;;;;;;;;;;;;;;;;;5092690;28;19924;-70
2023/09/17 05:28:17;;;;;;;;;;;;;;;;;;5094625;28;19924;-70
2023/09/17 05:30:44;;;;;;;;;;;;;;;;;;5095562;28;19994;-70
2023/09/17 05:33:11;;;;;;;;;;;;;;;;;;5095593;28;19931;-71
2023/09/17 05:35:38;;;;;;;;;;;;;;;;;;5095240;28;19956;-70
2023/09/17 05:38:05;;;;;;;;;;;;;;;;;;5095882;28;19985;-70
2023/09/17 05:40:32;;;;;;;;;;;;;;;;;;5096249;28;20355;-70
2023/09/17 05:42:59;;;;;;;;;;;;;;;;;;5092988;28;19928;-70
2023/09/17 05:45:27;;;;;;;;;;;;;;;;;;5094984;28;19931;-71
2023/09/17 05:47:54;;;;;;;;;;;;;;;;;;5096200;28;20344;-70
2023/09/17 05:50:21;;;;;;;;;;;;;;;;;;5095528;28;19984;-70
2023/09/17 05:52:48;;;;;;;;;;;;;;;;;;5095749;28;20392;-70
2023/09/17 05:55:15;;;;;;;;;;;;;;;;;;5095535;28;19924;-71
2023/09/17 05:57:42;;;;;;;;;;;;;;;;;;5095387;28;19946;-70
2023/09/17 06:00:09;;;;;;;;;;;;;;;;;;5089926;28;19985;-70
2023/09/17 06:02:37;;;;;;;;;;;;;;;;;;5094941;28;20346;-71
2023/09/17 06:05:04;;;;;;;;;;;;;;;;;;5095770;28;19933;-71
2023/09/17 06:07:31;;;;;;;;;;;;;;;;;;5095191;28;19924;-71
2023/09/17 06:09:58;;;;;;;;;;;;;;;;;;5091299;28;19928;-71
2023/09/17 06:12:25;;;;;;;;;;;;;;;;;;5086254;28;19924;-71
2023/09/17 06:14:53;;;;;;;;;;;;;;;;;;5093813;28;19924;-71
2023/09/17 06:17:20;;;;;;;;;;;;;;;;;;5096017;28;19928;-71
2023/09/17 06:19:47;;;;;;;;;;;;;;;;;;5080370;28;19970;-70
2023/09/17 06:22:14;;;;;;;;;;;;;;;;;;5078763;28;19968;-70
2023/09/17 06:24:41;;;;;;;;;;;;;;;;;;5092212;28;19954;-70
2023/09/17 06:27:08;;;;;;;;;;;;;;;;;;5086168;28;19989;-67
2023/09/17 06:29:35;;;;;;;;;;;;;;;;;;5090939;28;19924;-66
2023/09/17 06:32:03;;;;;;;;;;;;;;;;;;5086514;28;19924;-67
2023/09/17 06:34:30;;;;;;;;;;;;;;;;;;5077697;28;20273;-67
2023/09/17 06:36:57;;;;;;;;;;;;;;;;;;5074476;28;19924;-68
2023/09/17 06:39:24;;;;;;;;;;;;;;;;;;5086798;28;19969;-67
2023/09/17 06:41:52;;;;;;;;;;;;;;;;;;5094389;28;19992;-67
2023/09/17 06:44:19;;;;;;;;;;;;;;;;;;5087734;28;19974;-66
2023/09/17 06:46:46;;;;;;;;;;;;;;;;;;5082604;28;19924;-67
2023/09/17 06:49:14;;;;;;;;;;;;;;;;;;5088106;28;20347;-67
2023/09/17 06:51:42;;;;;;;;;;;;;;;;;;5090243;28;19924;-69
2023/09/17 06:54:09;;;;;;;;;;;;;;;;;;5086287;28;20010;-68
2023/09/17 06:56:48;;;;;;;;;;;;;;;;;;5074306;28;19928;-67
2023/09/17 06:59:15;;;;;;;;;;;;;;;;;;5089454;28;20467;-71
2023/09/17 07:01:45;;;;;;;;;;;;;;;;;;5088517;28;19956;-68
2023/09/17 07:04:12;;;;;;;;;;;;;;;;;;5086466;28;19952;-68
2023/09/17 07:06:39;;;;;;;;;;;;;;;;;;5087870;28;22397;-68
2023/09/17 07:09:07;;;;;;;;;;;;;;;;;;5090484;28;19930;-68
2023/09/17 07:11:34;;;;;;;;;;;;;;;;;;5086553;28;19924;-67
2023/09/17 07:14:05;;;;;;;;;;;;;;;;;;5091788;28;20015;-69
2023/09/17 07:16:32;;;;;;;;;;;;;;;;;;5083357;28;19935;-68
2023/09/17 07:18:59;;;;;;;;;;;;;;;;;;5076536;28;19932;-67
2023/09/17 07:21:27;;;;;;;;;;;;;;;;;;5090565;28;20007;-67
2023/09/17 07:23:54;;;;;;;;;;;;;;;;;;5083515;28;20409;-68
2023/09/17 07:26:21;;;;;;;;;;;;;;;;;;5084205;28;20303;-67
2023/09/17 07:28:48;;;;;;;;;;;;;;;;;;5084882;28;19936;-65
2023/09/17 07:31:15;;;;;;;;;;;;;;;;;;5089506;28;20629;-67
2023/09/17 07:33:45;;;;;;;;;;;;;;;;;;5086927;28;19924;-67
2023/09/17 07:36:13;;;;;;;;;;;;;;;;;;5086830;28;19932;-68
2023/09/17 07:38:40;;;;;;;;;;;;;;;;;;5087574;28;19931;-68
2023/09/17 07:41:07;;;;;;;;;;;;;;;;;;5087412;28;19939;-68
2023/09/17 07:43:34;;;;;;;;;;;;;;;;;;5090572;28;20367;-69
2023/09/17 07:46:01;;;;;;;;;;;;;;;;;;5087170;28;20033;-69
2023/09/17 07:48:29;;;;;;;;;;;;;;;;;;5077551;28;20472;-69
2023/09/17 07:50:57;;;;;;;;;;;;;;;;;;5080127;28;19924;-70
2023/09/17 07:53:24;;;;;;;;;;;;;;;;;;5084041;28;20244;-70
2023/09/17 07:55:51;;;;;;;;;;;;;;;;;;5081288;28;19932;-69
2023/09/17 07:58:18;;;;;;;;;;;;;;;;;;5083513;28;20886;-69
2023/09/17 08:00:46;;;;;;;;;;;;;;;;;;5083045;28;19924;-69
2023/09/17 08:03:13;;;;;;;;;;;;;;;;;;5082521;28;19967;-69
2023/09/17 08:05:40;;;;;;;;;;;;;;;;;;5077741;28;19974;-69
2023/09/17 08:08:07;;;;;;;;;;;;;;;;;;5080191;28;20343;-70
2023/09/17 08:10:34;;;;;;;;;;;;;;;;;;5083461;28;20015;-70
2023/09/17 08:13:01;;;;;;;;;;;;;;;;;;5083052;28;20336;-70
2023/09/17 08:15:29;;;;;;;;;;;;;;;;;;5090171;28;19932;-70
2023/09/17 08:17:56;;;;;;;;;;;;;;;;;;5089809;28;19924;-70
2023/09/17 08:20:23;;;;;;;;;;;;;;;;;;5091635;28;20383;-70
2023/09/17 08:22:51;;;;;;;;;;;;;;;;;;5089457;28;19989;-71
2023/09/17 08:25:18;;;;;;;;;;;;;;;;;;5081349;28;19924;-71
2023/09/17 08:27:45;;;;;;;;;;;;;;;;;;5086947;28;19928;-69
2023/09/17 08:30:12;;;;;;;;;;;;;;;;;;5087805;28;19961;-70
2023/09/17 08:32:39;;;;;;;;;;;;;;;;;;5081518;28;19924;-70
2023/09/17 08:35:07;;;;;;;;;;;;;;;;;;5083899;28;19966;-70
2023/09/17 08:37:34;;;;;;;;;;;;;;;;;;5083173;28;19932;-70
2023/09/17 08:40:03;;;;;;;;;;;;;;;;;;5083564;28;19928;-71
2023/09/17 08:42:30;;;;;;;;;;;;;;;;;;5084776;28;19942;-70
2023/09/17 08:44:57;;;;;;;;;;;;;;;;;;5086981;28;19944;-70
2023/09/17 08:47:24;;;;;;;;;;;;;;;;;;5091616;28;20059;-70
2023/09/17 08:49:51;;;;;;;;;;;;;;;;;;5088383;28;20053;-72
2023/09/17 08:52:18;;;;;;;;;;;;;;;;;;5084238;28;20368;-71
2023/09/17 08:54:45;;;;;;;;;;;;;;;;;;5080927;28;19976;-70
2023/09/17 08:57:12;;;;;;;;;;;;;;;;;;5083254;28;20290;-71
2023/09/17 08:59:39;;;;;;;;;;;;;;;;;;5080088;28;19924;-70
2023/09/17 09:02:07;;;;;;;;;;;;;;;;;;5085309;28;20460;-71
2023/09/17 09:04:35;;;;;;;;;;;;;;;;;;5090275;28;19924;-70
2023/09/17 09:07:02;;;;;;;;;;;;;;;;;;5092086;28;20341;-69
2023/09/17 09:09:30;;;;;;;;;;;;;;;;;;5091146;28;20375;-70
2023/09/17 09:11:57;;;;;;;;;;;;;;;;;;5084911;28;19925;-71
2023/09/17 09:14:24;;;;;;;;;;;;;;;;;;5091531;28;19924;-71
2023/09/17 09:16:51;;;;;;;;;;;;;;;;;;5089423;28;19959;-71
2023/09/17 09:19:18;;;;;;;;;;;;;;;;;;5085038;28;20367;-70
2023/09/17 09:21:45;;;;;;;;;;;;;;;;;;5091329;28;19924;-70
2023/09/17 09:24:12;;;;;;;;;;;;;;;;;;5091388;28;20440;-71
2023/09/17 09:26:40;;;;;;;;;;;;;;;;;;5089937;28;19931;-70
2023/09/17 09:29:08;;;;;;;;;;;;;;;;;;5087330;28;20339;-70
2023/09/17 09:31:35;;;;;;;;;;;;;;;;;;5090886;28;19924;-71
2023/09/17 09:34:02;;;;;;;;;;;;;;;;;;5090664;28;19924;-71
2023/09/17 09:36:30;;;;;;;;;;;;;;;;;;5087461;28;20375;-72
2023/09/17 09:38:58;;;;;;;;;;;;;;;;;;5078974;28;19999;-72
2023/09/17 09:41:25;;;;;;;;;;;;;;;;;;5083559;28;19931;-72
2023/09/17 09:43:53;;;;;;;;;;;;;;;;;;5088121;28;19931;-70
2023/09/17 09:46:20;;;;;;;;;;;;;;;;;;5090233;28;20005;-69
2023/09/17 09:48:50;;;;;;;;;;;;;;;;;;5089490;28;20282;-70
2023/09/17 09:51:17;;;;;;;;;;;;;;;;;;5090130;28;19931;-70
2023/09/17 09:53:45;;;;;;;;;;;;;;;;;;5081881;28;19931;-70
2023/09/17 09:56:12;;;;;;;;;;;;;;;;;;5091771;28;20470;-71
2023/09/17 09:58:40;;;;;;;;;;;;;;;;;;5094791;28;20019;-70
2023/09/17 10:01:07;;;;;;;;;;;;;;;;;;5094620;28;19925;-71
2023/09/17 10:03:34;;;;;;;;;;;;;;;;;;5084236;28;19924;-69
2023/09/17 10:06:03;;;;;;;;;;;;;;;;;;5092481;28;19977;-70
2023/09/17 10:08:30;;;;;;;;;;;;;;;;;;5089638;28;19924;-70
2023/09/17 10:10:57;;;;;;;;;;;;;;;;;;5094844;28;19930;-69
2023/09/17 10:13:24;;;;;;;;;;;;;;;;;;5088825;28;19932;-71
2023/09/17 10:15:52;;;;;;;;;;;;;;;;;;5092412;28;19941;-71
2023/09/17 10:18:19;;;;;;;;;;;;;;;;;;5089859;28;20367;-72
2023/09/17 10:20:46;;;;;;;;;;;;;;;;;;5082189;28;19992;-71
2023/09/17 10:23:14;;;;;;;;;;;;;;;;;;5094174;28;19924;-70
2023/09/17 10:25:41;;;;;;;;;;;;;;;;;;5085368;28;20027;-70
2023/09/17 10:28:08;;;;;;;;;;;;;;;;;;5083155;28;20305;-71
2023/09/17 10:30:35;;;;;;;;;;;;;;;;;;5093797;28;19931;-71
2023/09/17 10:33:03;;;;;;;;;;;;;;;;;;5093017;28;19928;-71
2023/09/17 10:35:30;;;;;;;;;;;;;;;;;;5079804;28;20063;-72
2023/09/17 10:37:58;;;;;;;;;;;;;;;;;;5093302;28;19924;-72
2023/09/17 10:40:25;;;;;;;;;;;;;;;;;;5087609;28;19928;-71
2023/09/17 10:42:53;;;;;;;;;;;;;;;;;;5088176;28;20043;-70
2023/09/17 10:45:20;;;;;;;;;;;;;;;;;;5083905;28;19943;-71
2023/09/17 10:47:47;;;;;;;;;;;;;;;;;;5090793;28;19924;-71
2023/09/17 10:50:14;;;;;;;;;;;;;;;;;;5083401;28;19936;-71
2023/09/17 10:52:41;;;;;;;;;;;;;;;;;;5082851;28;19925;-71
2023/09/17 10:55:08;;;;;;;;;;;;;;;;;;5076435;28;20422;-71
2023/09/17 10:57:35;;;;;;;;;;;;;;;;;;5092157;28;19996;-71
2023/09/17 11:00:04;;;;;;;;;;;;;;;;;;5086560;28;19924;-70
2023/09/17 11:02:31;;;;;;;;;;;;;;;;;;5090515;28;20344;-71
2023/09/17 11:04:58;;;;;;;;;;;;;;;;;;5087768;28;19928;-71
2023/09/17 11:07:26;;;;;;;;;;;;;;;;;;5077035;28;20015;-71
2023/09/17 11:09:53;;;;;;;;;;;;;;;;;;5089414;28;20417;-71
2023/09/17 11:12:23;;;;;;;;;;;;;;;;;;5087510;28;20002;-70
2023/09/17 11:14:50;;;;;;;;;;;;;;;;;;5082286;28;20487;-71
2023/09/17 11:17:18;;;;;;;;;;;;;;;;;;5083975;28;19931;-71
2023/09/17 11:19:45;;;;;;;;;;;;;;;;;;5084980;28;20033;-71
2023/09/17 11:22:12;;;;;;;;;;;;;;;;;;5089307;28;19924;-70
2023/09/17 11:24:42;;;;;;;;;;;;;;;;;;5080582;28;20371;-70
2023/09/17 11:27:11;;;;;;;;;;;;;;;;;;5092625;28;19928;-70
2023/09/17 11:29:38;;;;;;;;;;;;;;;;;;5088859;28;20442;-70
2023/09/17 11:32:09;;;;;;;;;;;;;;;;;;5080126;28;20671;-72
2023/09/17 11:34:36;;;;;;;;;;;;;;;;;;5088312;28;19971;-70
2023/09/17 11:37:03;;;;;;;;;;;;;;;;;;5084399;28;19924;-70
2023/09/17 11:39:30;;;;;;;;;;;;;;;;;;5087884;28;19924;-71
2023/09/17 11:42:03;;;;;;;;;;;;;;;;;;5086232;28;19985;-71
2023/09/17 11:44:30;;;;;;;;;;;;;;;;;;5089413;28;20016;-71
2023/09/17 11:46:57;;;;;;;;;;;;;;;;;;5072675;28;20354;-69
2023/09/17 11:49:24;;;;;;;;;;;;;;;;;;5082194;28;19929;-70
2023/09/17 11:51:51;;;;;;;;;;;;;;;;;;5088419;28;19928;-70
2023/09/17 11:54:20;;;;;;;;;;;;;;;;;;5092578;28;19928;-70
2023/09/17 11:56:49;;;;;;;;;;;;;;;;;;5088390;28;19924;-68
2023/09/17 11:59:17;;;;;;;;;;;;;;;;;;5087272;28;20351;-70
2023/09/17 12:01:44;;;;;;;;;;;;;;;;;;5089812;28;19924;-70
2023/09/17 12:04:11;;;;;;;;;;;;;;;;;;5089334;28;19990;-70
2023/09/17 12:06:39;;;;;;;;;;;;;;;;;;5090401;28;19932;-70
2023/09/17 12:09:11;;;;;;;;;;;;;;;;;;5088614;28;19967;-70
2023/09/17 12:11:38;;;;;;;;;;;;;;;;;;5090710;28;19924;-70
2023/09/17 12:14:06;;;;;;;;;;;;;;;;;;5089926;28;19925;-70
2023/09/17 12:16:33;;;;;;;;;;;;;;;;;;5083392;28;19928;-70
2023/09/17 12:19:00;;;;;;;;;;;;;;;;;;5085929;28;20003;-70
2023/09/17 12:21:30;;;;;;;;;;;;;;;;;;5078742;28;20379;-70
2023/09/17 12:23:57;;;;;;;;;;;;;;;;;;5092237;28;19924;-70
2023/09/17 12:26:24;;;;;;;;;;;;;;;;;;5082922;28;19925;-70
2023/09/17 12:28:51;;;;;;;;;;;;;;;;;;5082727;28;19925;-70
2023/09/17 12:31:18;;;;;;;;;;;;;;;;;;5090222;28;19924;-70
2023/09/17 12:33:45;;;;;;;;;;;;;;;;;;5080544;28;20039;-70
2023/09/17 12:36:13;;;;;;;;;;;;;;;;;;5081950;28;19927;-70
2023/09/17 12:38:40;;;;;;;;;;;;;;;;;;5092342;28;19928;-70
2023/09/17 12:41:08;;;;;;;;;;;;;;;;;;5075147;28;19924;-70
2023/09/17 12:43:35;;;;;;;;;;;;;;;;;;5083912;28;19924;-70
2023/09/17 12:46:03;;;;;;;;;;;;;;;;;;5092223;28;19924;-70
2023/09/17 12:48:30;;;;;;;;;;;;;;;;;;5090963;28;19931;-70
2023/09/17 12:50:57;;;;;;;;;;;;;;;;;;5077054;28;19985;-70
2023/09/17 12:53:24;;;;;;;;;;;;;;;;;;5073872;28;20433;-71
2023/09/17 12:55:51;;;;;;;;;;;;;;;;;;5092286;28;19969;-71
2023/09/17 12:58:18;;;;;;;;;;;;;;;;;;5085344;28;19977;-71
2023/09/17 13:00:45;;;;;;;;;;;;;;;;;;5083602;28;19977;-71
2023/09/17 13:03:13;;;;;;;;;;;;;;;;;;5090649;28;19959;-70
2023/09/17 13:05:40;;;;;;;;;;;;;;;;;;5084204;28;20008;-71
2023/09/17 13:08:07;;;;;;;;;;;;;;;;;;5081844;28;19924;-71
2023/09/17 13:10:34;;;;;;;;;;;;;;;;;;5091956;28;19923;-71
2023/09/17 13:13:03;;;;;;;;;;;;;;;;;;5091872;28;19977;-72
2023/09/17 13:15:30;;;;;;;;;;;;;;;;;;5079644;28;19924;-72
2023/09/17 13:17:57;;;;;;;;;;;;;;;;;;5087036;28;20379;-72
2023/09/17 13:20:24;;;;;;;;;;;;;;;;;;5086010;28;19924;-72
2023/09/17 13:22:51;;;;;;;;;;;;;;;;;;5092118;28;19931;-72
2023/09/17 13:25:18;;;;;;;;;;;;;;;;;;5094489;28;19931;-71
2023/09/17 13:27:45;;;;;;;;;;;;;;;;;;5092902;28;19959;-69
2023/09/17 13:30:12;;;;;;;;;;;;;;;;;;5095339;28;20358;-72
2023/09/17 13:32:39;;;;;;;;;;;;;;;;;;5090525;28;19924;-71
2023/09/17 13:35:08;;;;;;;;;;;;;;;;;;5094780;28;20243;-71
2023/09/17 13:37:35;;;;;;;;;;;;;;;;;;5095276;28;19928;-72
2023/09/17 13:40:02;;;;;;;;;;;;;;;;;;5095822;28;19928;-72
2023/09/17 13:42:30;;;;;;;;;;;;;;;;;;5095612;28;19924;-73
2023/09/17 13:44:57;;;;;;;;;;;;;;;;;;5095604;28;20295;-72
2023/09/17 13:47:24;;;;;;;;;;;;;;;;;;5095318;28;19970;-72
2023/09/17 13:49:51;;;;;;;;;;;;;;;;;;5095226;28;20386;-72
2023/09/17 13:52:18;;;;;;;;;;;;;;;;;;5095078;28;19981;-72
2023/09/17 13:54:45;;;;;;;;;;;;;;;;;;5092955;28;19936;-72
2023/09/17 13:57:13;;;;;;;;;;;;;;;;;;5084659;28;20353;-72
2023/09/17 13:59:40;;;;;;;;;;;;;;;;;;5095028;28;19924;-72
2023/09/17 14:02:07;;;;;;;;;;;;;;;;;;5085065;28;20404;-72
2023/09/17 14:04:34;;;;;;;;;;;;;;;;;;5074873;28;19970;-72
2023/09/17 14:07:01;;;;;;;;;;;;;;;;;;5081958;28;19947;-72
2023/09/17 14:09:28;;;;;;;;;;;;;;;;;;5093287;28;19969;-72
2023/09/17 14:11:55;;;;;;;;;;;;;;;;;;5080238;28;19978;-72
2023/09/17 14:14:22;;;;;;;;;;;;;;;;;;5094569;28;20359;-72
2023/09/17 14:16:49;;;;;;;;;;;;;;;;;;5092052;28;19981;-72
2023/09/17 14:19:17;;;;;;;;;;;;;;;;;;5092157;28;19924;-72
2023/09/17 14:21:44;;;;;;;;;;;;;;;;;;5080613;28;20295;-72
2023/09/17 14:24:11;;;;;;;;;;;;;;;;;;5094277;28;19924;-72
2023/09/17 14:26:38;;;;;;;;;;;;;;;;;;5086642;28;20379;-72
2023/09/17 14:29:05;;;;;;;;;;;;;;;;;;5088167;28;20356;-72
2023/09/17 14:31:32;;;;;;;;;;;;;;;;;;5094162;28;19924;-72
2023/09/17 14:33:59;;;;;;;;;;;;;;;;;;5080498;28;20299;-72
2023/09/17 14:36:27;;;;;;;;;;;;;;;;;;5072565;28;19931;-71
2023/09/17 14:38:54;;;;;;;;;;;;;;;;;;5078973;28;19932;-72
2023/09/17 14:41:21;;;;;;;;;;;;;;;;;;5094326;28;19961;-72
2023/09/17 14:43:48;;;;;;;;;;;;;;;;;;5094202;28;19924;-71
2023/09/17 14:46:15;;;;;;;;;;;;;;;;;;5088913;28;19929;-72
2023/09/17 14:48:42;;;;;;;;;;;;;;;;;;5085457;28;19924;-73
2023/09/17 14:51:09;;;;;;;;;;;;;;;;;;5085987;28;20299;-72
2023/09/17 14:53:36;;;;;;;;;;;;;;;;;;5078959;28;19944;-72
2023/09/17 14:56:03;;;;;;;;;;;;;;;;;;5077510;28;19924;-71
2023/09/17 14:58:30;;;;;;;;;;;;;;;;;;5079778;28;19924;-72
2023/09/17 15:00:57;;;;;;;;;;;;;;;;;;5094403;28;19924;-72
2023/09/17 15:03:25;;;;;;;;;;;;;;;;;;5089241;28;19970;-71
2023/09/17 15:05:53;;;;;;;;;;;;;;;;;;5093613;28;20381;-70
2023/09/17 15:08:20;;;;;;;;;;;;;;;;;;5089426;28;19931;-71
2023/09/17 15:10:47;;;;;;;;;;;;;;;;;;5091966;28;20379;-71
2023/09/17 15:13:14;;;;;;;;;;;;;;;;;;5091433;28;19974;-70
2023/09/17 15:15:41;;;;;;;;;;;;;;;;;;5079364;28;19924;-71
2023/09/17 15:18:08;;;;;;;;;;;;;;;;;;5088297;28;19966;-69
2023/09/17 15:20:35;;;;;;;;;;;;;;;;;;5092402;28;19924;-71
2023/09/17 15:23:03;;;;;;;;;;;;;;;;;;5084486;28;19925;-71
2023/09/17 15:25:30;;;;;;;;;;;;;;;;;;5079266;28;19971;-71
2023/09/17 15:27:58;;;;;;;;;;;;;;;;;;5085777;28;20324;-69
2023/09/17 15:30:25;;;;;;;;;;;;;;;;;;5093600;28;19924;-70
2023/09/17 15:32:52;;;;;;;;;;;;;;;;;;5093070;28;19924;-71
2023/09/17 15:35:19;;;;;;;;;;;;;;;;;;5092949;28;20444;-71
2023/09/17 15:37:46;;;;;;;;;;;;;;;;;;5093492;28;19924;-71
2023/09/17 15:40:13;;;;;;;;;;;;;;;;;;5092890;28;19959;-72
2023/09/17 15:42:41;;;;;;;;;;;;;;;;;;5093524;28;19928;-71
2023/09/17 15:45:08;;;;;;;;;;;;;;;;;;5090544;28;19930;-72
2023/09/17 15:47:36;;;;;;;;;;;;;;;;;;5092290;28;19964;-72
2023/09/17 15:50:03;;;;;;;;;;;;;;;;;;5092973;28;19936;-73
2023/09/17 15:52:30;;;;;;;;;;;;;;;;;;5093066;28;19954;-71
2023/09/17 15:54:57;;;;;;;;;;;;;;;;;;5088591;28;20017;-72
2023/09/17 15:57:24;;;;;;;;;;;;;;;;;;5090925;28;19964;-71
2023/09/17 15:59:51;;;;;;;;;;;;;;;;;;5091643;28;19932;-72
2023/09/17 16:02:19;;;;;;;;;;;;;;;;;;5090111;28;19924;-72
2023/09/17 16:04:46;;;;;;;;;;;;;;;;;;5074943;28;19925;-71
2023/09/17 16:07:14;;;;;;;;;;;;;;;;;;5092530;28;19950;-72
2023/09/17 16:09:41;;;;;;;;;;;;;;;;;;5090324;28;19931;-72
2023/09/17 16:12:08;;;;;;;;;;;;;;;;;;5088582;28;19932;-72
2023/09/17 16:14:35;;;;;;;;;;;;;;;;;;5076744;28;19981;-72
2023/09/17 16:17:02;;;;;;;;;;;;;;;;;;5093003;28;20000;-72
2023/09/17 16:19:30;;;;;;;;;;;;;;;;;;5092450;28;19931;-72
2023/09/17 16:21:57;;;;;;;;;;;;;;;;;;5076645;28;20391;-71
2023/09/17 16:24:24;;;;;;;;;;;;;;;;;;5086107;28;20013;-71
2023/09/17 16:26:54;;;;;;;;;;;;;;;;;;5089146;28;20705;-72
2023/09/17 16:29:21;;;;;;;;;;;;;;;;;;5092877;28;19924;-72
2023/09/17 16:31:50;;;;;;;;;;;;;;;;;;5084377;28;19946;-70
2023/09/17 16:34:17;;;;;;;;;;;;;;;;;;5086371;28;19930;-70
2023/09/17 16:36:44;;;;;;;;;;;;;;;;;;5083363;28;19928;-71
2023/09/17 16:39:11;;;;;;;;;;;;;;;;;;5088209;28;19993;-71
2023/09/17 16:41:39;;;;;;;;;;;;;;;;;;5092291;28;19978;-71
2023/09/17 16:44:06;;;;;;;;;;;;;;;;;;5081255;28;19925;-71
2023/09/17 16:46:33;;;;;;;;;;;;;;;;;;5090121;28;19924;-72